sensor_id;sensor_type;location;lat;lon;timestamp;P1;durP1;ratioP1;P2;durP2;ratioP2
33190;SDS011;19554;42.652;23.364;2023-04-28T00:01:50;5.22;;;2.72;;
33190;SDS011;19554;42.652;23.364;2023-04-28T00:04:16;6.88;;;2.90;;
33190;SDS011;19554;42.652;23.364;2023-04-28T00:06:41;8.98;;;3.10;;
33190;SDS011;19554;42.652;23.364;2023-04-28T00:09:07;7.60;;;3.35;;
33190;SDS011;19554;42.652;23.364;2023-04-28T00:11:36;8.15;;;3.30;;
33190;SDS011;19554;42.652;23.364;2023-04-28T00:14:02;4.68;;;2.83;;
33190;SDS011;19554;42.652;23.364;2023-04-28T00:16:28;6.28;;;2.92;;
33190;SDS011;19554;42.652;23.364;2023-04-28T00:18:53;5.03;;;3.10;;
33190;SDS011;19554;42.652;23.364;2023-04-28T00:21:18;8.77;;;2.97;;
33190;SDS011;19554;42.652;23.364;2023-04-28T00:23:44;6.80;;;2.80;;
33190;SDS011;19554;42.652;23.364;2023-04-28T00:26:09;8.00;;;3.22;;
33190;SDS011;19554;42.652;23.364;2023-04-28T00:28:36;7.07;;;3.35;;
33190;SDS011;19554;42.652;23.364;2023-04-28T00:31:02;8.82;;;3.08;;
33190;SDS011;19554;42.652;23.364;2023-04-28T00:33:34;7.30;;;3.05;;
33190;SDS011;19554;42.652;23.364;2023-04-28T00:36:00;10.73;;;3.00;;
33190;SDS011;19554;42.652;23.364;2023-04-28T00:38:25;7.55;;;3.33;;
33190;SDS011;19554;42.652;23.364;2023-04-28T00:40:51;4.75;;;3.53;;
33190;SDS011;19554;42.652;23.364;2023-04-28T00:43:16;7.32;;;3.42;;
33190;SDS011;19554;42.652;23.364;2023-04-28T00:45:42;7.82;;;3.53;;
33190;SDS011;19554;42.652;23.364;2023-04-28T00:48:07;7.43;;;3.78;;
33190;SDS011;19554;42.652;23.364;2023-04-28T00:50:32;6.55;;;4.07;;
33190;SDS011;19554;42.652;23.364;2023-04-28T00:52:58;7.47;;;3.83;;
33190;SDS011;19554;42.652;23.364;2023-04-28T00:55:24;5.22;;;3.30;;
33190;SDS011;19554;42.652;23.364;2023-04-28T00:57:51;5.25;;;3.20;;
33190;SDS011;19554;42.652;23.364;2023-04-28T01:00:20;10.73;;;3.60;;
33190;SDS011;19554;42.652;23.364;2023-04-28T01:02:45;8.10;;;3.28;;
33190;SDS011;19554;42.652;23.364;2023-04-28T01:05:11;7.47;;;3.20;;
33190;SDS011;19554;42.652;23.364;2023-04-28T01:07:38;6.18;;;3.15;;
33190;SDS011;19554;42.652;23.364;2023-04-28T01:10:03;9.27;;;3.20;;
33190;SDS011;19554;42.652;23.364;2023-04-28T01:12:29;12.30;;;3.20;;
33190;SDS011;19554;42.652;23.364;2023-04-28T01:14:54;8.20;;;3.58;;
33190;SDS011;19554;42.652;23.364;2023-04-28T01:17:20;5.18;;;2.88;;
33190;SDS011;19554;42.652;23.364;2023-04-28T01:19:46;6.35;;;3.00;;
33190;SDS011;19554;42.652;23.364;2023-04-28T01:22:11;7.45;;;2.75;;
33190;SDS011;19554;42.652;23.364;2023-04-28T01:24:39;6.47;;;3.00;;
33190;SDS011;19554;42.652;23.364;2023-04-28T01:27:04;6.07;;;3.03;;
33190;SDS011;19554;42.652;23.364;2023-04-28T01:29:30;5.78;;;3.75;;
33190;SDS011;19554;42.652;23.364;2023-04-28T01:31:55;9.02;;;3.53;;
33190;SDS011;19554;42.652;23.364;2023-04-28T01:34:21;7.38;;;2.60;;
33190;SDS011;19554;42.652;23.364;2023-04-28T01:36:46;7.22;;;3.10;;
33190;SDS011;19554;42.652;23.364;2023-04-28T01:39:11;6.63;;;3.05;;
33190;SDS011;19554;42.652;23.364;2023-04-28T01:41:37;4.97;;;3.28;;
33190;SDS011;19554;42.652;23.364;2023-04-28T01:44:03;9.15;;;4.10;;
33190;SDS011;19554;42.652;23.364;2023-04-28T01:46:30;3.53;;;2.72;;
33190;SDS011;19554;42.652;23.364;2023-04-28T01:48:55;8.57;;;3.50;;
33190;SDS011;19554;42.652;23.364;2023-04-28T01:51:20;6.30;;;3.85;;
33190;SDS011;19554;42.652;23.364;2023-04-28T01:53:46;6.53;;;3.15;;
33190;SDS011;19554;42.652;23.364;2023-04-28T01:56:11;7.00;;;3.55;;
33190;SDS011;19554;42.652;23.364;2023-04-28T01:58:36;4.88;;;3.08;;
33190;SDS011;19554;42.652;23.364;2023-04-28T02:01:02;8.52;;;3.20;;
33190;SDS011;19554;42.652;23.364;2023-04-28T02:03:27;9.38;;;3.42;;
33190;SDS011;19554;42.652;23.364;2023-04-28T02:05:53;7.82;;;3.53;;
33190;SDS011;19554;42.652;23.364;2023-04-28T02:08:19;6.68;;;3.30;;
33190;SDS011;19554;42.652;23.364;2023-04-28T02:10:44;7.22;;;3.15;;
33190;SDS011;19554;42.652;23.364;2023-04-28T02:13:10;5.70;;;3.45;;
33190;SDS011;19554;42.652;23.364;2023-04-28T02:15:39;8.10;;;3.35;;
33190;SDS011;19554;42.652;23.364;2023-04-28T02:18:06;8.32;;;3.53;;
33190;SDS011;19554;42.652;23.364;2023-04-28T02:20:31;8.45;;;3.45;;
33190;SDS011;19554;42.652;23.364;2023-04-28T02:22:57;8.68;;;2.88;;
33190;SDS011;19554;42.652;23.364;2023-04-28T02:25:22;3.70;;;2.80;;
33190;SDS011;19554;42.652;23.364;2023-04-28T02:27:47;8.43;;;3.00;;
33190;SDS011;19554;42.652;23.364;2023-04-28T02:30:13;11.23;;;3.92;;
33190;SDS011;19554;42.652;23.364;2023-04-28T02:32:38;7.88;;;3.67;;
33190;SDS011;19554;42.652;23.364;2023-04-28T02:35:04;5.60;;;3.53;;
33190;SDS011;19554;42.652;23.364;2023-04-28T02:37:29;6.30;;;3.22;;
33190;SDS011;19554;42.652;23.364;2023-04-28T02:39:55;5.63;;;2.97;;
33190;SDS011;19554;42.652;23.364;2023-04-28T02:42:20;6.55;;;3.38;;
33190;SDS011;19554;42.652;23.364;2023-04-28T02:44:46;5.80;;;3.42;;
33190;SDS011;19554;42.652;23.364;2023-04-28T02:47:11;7.38;;;3.42;;
33190;SDS011;19554;42.652;23.364;2023-04-28T02:49:37;7.68;;;3.20;;
33190;SDS011;19554;42.652;23.364;2023-04-28T02:52:02;8.60;;;3.33;;
33190;SDS011;19554;42.652;23.364;2023-04-28T02:54:27;7.13;;;3.45;;
33190;SDS011;19554;42.652;23.364;2023-04-28T02:56:53;6.05;;;3.53;;
33190;SDS011;19554;42.652;23.364;2023-04-28T02:59:19;7.72;;;3.85;;
33190;SDS011;19554;42.652;23.364;2023-04-28T03:01:45;6.57;;;3.50;;
33190;SDS011;19554;42.652;23.364;2023-04-28T03:04:11;5.10;;;3.15;;
33190;SDS011;19554;42.652;23.364;2023-04-28T03:06:37;7.53;;;3.50;;
33190;SDS011;19554;42.652;23.364;2023-04-28T03:09:02;8.93;;;3.60;;
33190;SDS011;19554;42.652;23.364;2023-04-28T03:11:28;7.47;;;3.47;;
33190;SDS011;19554;42.652;23.364;2023-04-28T03:13:53;6.95;;;3.28;;
33190;SDS011;19554;42.652;23.364;2023-04-28T03:16:18;7.43;;;3.67;;
33190;SDS011;19554;42.652;23.364;2023-04-28T03:18:44;5.72;;;3.40;;
33190;SDS011;19554;42.652;23.364;2023-04-28T03:21:09;9.00;;;3.95;;
33190;SDS011;19554;42.652;23.364;2023-04-28T03:23:34;8.80;;;3.63;;
33190;SDS011;19554;42.652;23.364;2023-04-28T03:26:00;12.20;;;3.90;;
33190;SDS011;19554;42.652;23.364;2023-04-28T03:28:25;5.53;;;3.60;;
33190;SDS011;19554;42.652;23.364;2023-04-28T03:30:51;13.25;;;3.60;;
33190;SDS011;19554;42.652;23.364;2023-04-28T03:33:16;8.52;;;3.78;;
33190;SDS011;19554;42.652;23.364;2023-04-28T03:35:41;5.82;;;3.42;;
33190;SDS011;19554;42.652;23.364;2023-04-28T03:38:07;11.60;;;3.90;;
33190;SDS011;19554;42.652;23.364;2023-04-28T03:40:32;7.82;;;3.60;;
33190;SDS011;19554;42.652;23.364;2023-04-28T03:42:58;5.18;;;3.60;;
33190;SDS011;19554;42.652;23.364;2023-04-28T03:45:23;6.00;;;3.30;;
33190;SDS011;19554;42.652;23.364;2023-04-28T03:47:48;7.13;;;3.30;;
33190;SDS011;19554;42.652;23.364;2023-04-28T03:50:14;8.20;;;3.45;;
33190;SDS011;19554;42.652;23.364;2023-04-28T03:52:39;9.68;;;3.35;;
33190;SDS011;19554;42.652;23.364;2023-04-28T03:55:05;7.22;;;3.53;;
33190;SDS011;19554;42.652;23.364;2023-04-28T03:57:30;9.77;;;3.83;;
33190;SDS011;19554;42.652;23.364;2023-04-28T03:59:56;9.73;;;3.05;;
33190;SDS011;19554;42.652;23.364;2023-04-28T04:02:21;9.25;;;4.15;;
33190;SDS011;19554;42.652;23.364;2023-04-28T04:04:46;7.38;;;3.50;;
33190;SDS011;19554;42.652;23.364;2023-04-28T04:07:12;6.68;;;3.35;;
33190;SDS011;19554;42.652;23.364;2023-04-28T04:09:38;7.68;;;3.35;;
33190;SDS011;19554;42.652;23.364;2023-04-28T04:12:03;12.77;;;5.90;;
33190;SDS011;19554;42.652;23.364;2023-04-28T04:14:29;8.95;;;4.32;;
33190;SDS011;19554;42.652;23.364;2023-04-28T04:16:54;10.15;;;5.00;;
33190;SDS011;19554;42.652;23.364;2023-04-28T04:19:20;9.35;;;3.88;;
33190;SDS011;19554;42.652;23.364;2023-04-28T04:21:47;7.25;;;3.10;;
33190;SDS011;19554;42.652;23.364;2023-04-28T04:24:13;9.27;;;3.40;;
33190;SDS011;19554;42.652;23.364;2023-04-28T04:26:38;10.65;;;3.10;;
33190;SDS011;19554;42.652;23.364;2023-04-28T04:29:04;10.15;;;3.40;;
33190;SDS011;19554;42.652;23.364;2023-04-28T04:31:29;12.20;;;3.50;;
33190;SDS011;19554;42.652;23.364;2023-04-28T04:33:55;13.52;;;3.53;;
33190;SDS011;19554;42.652;23.364;2023-04-28T04:36:21;6.57;;;3.58;;
33190;SDS011;19554;42.652;23.364;2023-04-28T04:38:46;6.43;;;3.17;;
33190;SDS011;19554;42.652;23.364;2023-04-28T04:41:11;7.55;;;3.28;;
33190;SDS011;19554;42.652;23.364;2023-04-28T04:43:37;4.60;;;2.90;;
33190;SDS011;19554;42.652;23.364;2023-04-28T04:46:03;5.75;;;2.95;;
33190;SDS011;19554;42.652;23.364;2023-04-28T04:48:28;7.22;;;2.78;;
33190;SDS011;19554;42.652;23.364;2023-04-28T04:50:53;7.97;;;3.10;;
33190;SDS011;19554;42.652;23.364;2023-04-28T04:53:19;6.90;;;2.97;;
33190;SDS011;19554;42.652;23.364;2023-04-28T04:55:45;7.78;;;3.05;;
33190;SDS011;19554;42.652;23.364;2023-04-28T04:58:10;5.25;;;3.00;;
33190;SDS011;19554;42.652;23.364;2023-04-28T05:00:36;6.60;;;3.50;;
33190;SDS011;19554;42.652;23.364;2023-04-28T05:03:01;5.15;;;2.92;;
33190;SDS011;19554;42.652;23.364;2023-04-28T05:05:28;6.57;;;3.13;;
33190;SDS011;19554;42.652;23.364;2023-04-28T05:07:53;11.20;;;3.22;;
33190;SDS011;19554;42.652;23.364;2023-04-28T05:10:19;10.85;;;3.25;;
33190;SDS011;19554;42.652;23.364;2023-04-28T05:12:44;6.15;;;3.30;;
33190;SDS011;19554;42.652;23.364;2023-04-28T05:15:10;9.18;;;3.40;;
33190;SDS011;19554;42.652;23.364;2023-04-28T05:17:35;14.80;;;6.50;;
33190;SDS011;19554;42.652;23.364;2023-04-28T05:20:01;5.45;;;3.40;;
33190;SDS011;19554;42.652;23.364;2023-04-28T05:22:26;6.40;;;3.55;;
33190;SDS011;19554;42.652;23.364;2023-04-28T05:24:51;5.68;;;3.28;;
33190;SDS011;19554;42.652;23.364;2023-04-28T05:27:17;5.03;;;3.08;;
33190;SDS011;19554;42.652;23.364;2023-04-28T05:29:43;6.90;;;3.08;;
33190;SDS011;19554;42.652;23.364;2023-04-28T05:32:08;7.38;;;3.58;;
33190;SDS011;19554;42.652;23.364;2023-04-28T05:34:34;8.05;;;3.00;;
33190;SDS011;19554;42.652;23.364;2023-04-28T05:37:00;7.32;;;3.70;;
33190;SDS011;19554;42.652;23.364;2023-04-28T05:39:25;9.45;;;4.30;;
33190;SDS011;19554;42.652;23.364;2023-04-28T05:41:50;13.10;;;4.45;;
33190;SDS011;19554;42.652;23.364;2023-04-28T05:44:16;8.90;;;3.80;;
33190;SDS011;19554;42.652;23.364;2023-04-28T05:46:41;9.32;;;3.55;;
33190;SDS011;19554;42.652;23.364;2023-04-28T05:49:07;12.30;;;3.13;;
33190;SDS011;19554;42.652;23.364;2023-04-28T05:51:33;9.65;;;4.10;;
33190;SDS011;19554;42.652;23.364;2023-04-28T05:53:59;9.50;;;3.10;;
33190;SDS011;19554;42.652;23.364;2023-04-28T05:56:24;7.68;;;3.63;;
33190;SDS011;19554;42.652;23.364;2023-04-28T05:58:50;12.13;;;3.53;;
33190;SDS011;19554;42.652;23.364;2023-04-28T06:01:15;12.27;;;3.67;;
33190;SDS011;19554;42.652;23.364;2023-04-28T06:03:41;8.55;;;3.83;;
33190;SDS011;19554;42.652;23.364;2023-04-28T06:06:07;5.68;;;3.30;;
33190;SDS011;19554;42.652;23.364;2023-04-28T06:08:33;16.73;;;4.32;;
33190;SDS011;19554;42.652;23.364;2023-04-28T06:10:59;13.30;;;4.35;;
33190;SDS011;19554;42.652;23.364;2023-04-28T06:13:24;8.50;;;2.80;;
33190;SDS011;19554;42.652;23.364;2023-04-28T06:15:49;7.05;;;3.17;;
33190;SDS011;19554;42.652;23.364;2023-04-28T06:18:15;8.55;;;3.42;;
33190;SDS011;19554;42.652;23.364;2023-04-28T06:20:41;9.40;;;4.20;;
33190;SDS011;19554;42.652;23.364;2023-04-28T06:23:06;10.02;;;3.38;;
33190;SDS011;19554;42.652;23.364;2023-04-28T06:25:33;16.15;;;3.97;;
33190;SDS011;19554;42.652;23.364;2023-04-28T06:28:00;8.75;;;3.22;;
33190;SDS011;19554;42.652;23.364;2023-04-28T06:30:25;5.65;;;3.03;;
33190;SDS011;19554;42.652;23.364;2023-04-28T06:32:51;5.60;;;3.10;;
33190;SDS011;19554;42.652;23.364;2023-04-28T06:35:16;6.90;;;3.42;;
33190;SDS011;19554;42.652;23.364;2023-04-28T06:37:42;6.32;;;3.63;;
33190;SDS011;19554;42.652;23.364;2023-04-28T06:40:08;7.63;;;3.45;;
33190;SDS011;19554;42.652;23.364;2023-04-28T06:42:34;6.50;;;3.50;;
33190;SDS011;19554;42.652;23.364;2023-04-28T06:45:00;8.43;;;3.00;;
33190;SDS011;19554;42.652;23.364;2023-04-28T06:47:25;8.35;;;3.72;;
33190;SDS011;19554;42.652;23.364;2023-04-28T06:49:51;6.00;;;3.17;;
33190;SDS011;19554;42.652;23.364;2023-04-28T06:52:16;8.63;;;3.20;;
33190;SDS011;19554;42.652;23.364;2023-04-28T06:54:42;9.45;;;3.50;;
33190;SDS011;19554;42.652;23.364;2023-04-28T06:57:07;5.57;;;2.78;;
33190;SDS011;19554;42.652;23.364;2023-04-28T06:59:33;9.27;;;3.40;;
33190;SDS011;19554;42.652;23.364;2023-04-28T07:01:59;10.70;;;3.78;;
33190;SDS011;19554;42.652;23.364;2023-04-28T07:04:24;9.75;;;3.92;;
33190;SDS011;19554;42.652;23.364;2023-04-28T07:06:51;10.43;;;3.60;;
33190;SDS011;19554;42.652;23.364;2023-04-28T07:09:16;6.50;;;3.40;;
33190;SDS011;19554;42.652;23.364;2023-04-28T07:11:42;8.77;;;3.17;;
33190;SDS011;19554;42.652;23.364;2023-04-28T07:14:08;6.93;;;3.22;;
33190;SDS011;19554;42.652;23.364;2023-04-28T07:16:33;7.25;;;2.88;;
33190;SDS011;19554;42.652;23.364;2023-04-28T07:19:00;8.30;;;3.03;;
33190;SDS011;19554;42.652;23.364;2023-04-28T07:21:25;9.00;;;3.40;;
33190;SDS011;19554;42.652;23.364;2023-04-28T07:23:50;12.10;;;4.60;;
33190;SDS011;19554;42.652;23.364;2023-04-28T07:26:16;10.30;;;3.20;;
33190;SDS011;19554;42.652;23.364;2023-04-28T07:28:42;7.65;;;3.35;;
33190;SDS011;19554;42.652;23.364;2023-04-28T07:31:08;6.50;;;3.33;;
33190;SDS011;19554;42.652;23.364;2023-04-28T07:33:33;8.18;;;4.10;;
33190;SDS011;19554;42.652;23.364;2023-04-28T07:35:58;12.60;;;3.63;;
33190;SDS011;19554;42.652;23.364;2023-04-28T07:38:24;10.20;;;3.92;;
33190;SDS011;19554;42.652;23.364;2023-04-28T07:40:49;9.23;;;3.20;;
33190;SDS011;19554;42.652;23.364;2023-04-28T07:43:15;7.88;;;3.58;;
33190;SDS011;19554;42.652;23.364;2023-04-28T07:45:40;7.25;;;3.92;;
33190;SDS011;19554;42.652;23.364;2023-04-28T07:48:06;7.88;;;3.50;;
33190;SDS011;19554;42.652;23.364;2023-04-28T07:50:32;8.57;;;3.88;;
33190;SDS011;19554;42.652;23.364;2023-04-28T07:52:58;4.90;;;3.20;;
33190;SDS011;19554;42.652;23.364;2023-04-28T07:55:23;6.65;;;2.78;;
33190;SDS011;19554;42.652;23.364;2023-04-28T07:57:49;4.93;;;3.17;;
33190;SDS011;19554;42.652;23.364;2023-04-28T08:00:15;7.18;;;3.13;;
33190;SDS011;19554;42.652;23.364;2023-04-28T08:02:41;6.05;;;3.13;;
33190;SDS011;19554;42.652;23.364;2023-04-28T08:05:07;10.95;;;3.42;;
33190;SDS011;19554;42.652;23.364;2023-04-28T08:07:33;6.18;;;2.65;;
33190;SDS011;19554;42.652;23.364;2023-04-28T08:09:59;7.75;;;3.58;;
33190;SDS011;19554;42.652;23.364;2023-04-28T08:12:25;4.50;;;2.92;;
33190;SDS011;19554;42.652;23.364;2023-04-28T08:14:51;4.78;;;3.05;;
33190;SDS011;19554;42.652;23.364;2023-04-28T08:17:16;10.52;;;3.83;;
33190;SDS011;19554;42.652;23.364;2023-04-28T08:19:41;10.60;;;3.53;;
33190;SDS011;19554;42.652;23.364;2023-04-28T08:22:10;8.77;;;3.50;;
33190;SDS011;19554;42.652;23.364;2023-04-28T08:24:35;6.65;;;3.20;;
33190;SDS011;19554;42.652;23.364;2023-04-28T08:27:01;5.80;;;2.97;;
33190;SDS011;19554;42.652;23.364;2023-04-28T08:29:27;7.65;;;2.97;;
33190;SDS011;19554;42.652;23.364;2023-04-28T08:31:56;7.00;;;3.15;;
33190;SDS011;19554;42.652;23.364;2023-04-28T08:34:22;5.95;;;3.00;;
33190;SDS011;19554;42.652;23.364;2023-04-28T08:36:47;8.10;;;2.67;;
33190;SDS011;19554;42.652;23.364;2023-04-28T08:39:13;5.28;;;3.10;;
33190;SDS011;19554;42.652;23.364;2023-04-28T08:41:38;6.25;;;3.10;;
33190;SDS011;19554;42.652;23.364;2023-04-28T08:44:08;8.23;;;2.75;;
33190;SDS011;19554;42.652;23.364;2023-04-28T08:46:34;6.15;;;2.75;;
33190;SDS011;19554;42.652;23.364;2023-04-28T08:49:01;8.68;;;4.30;;
33190;SDS011;19554;42.652;23.364;2023-04-28T08:51:33;8.25;;;3.00;;
33190;SDS011;19554;42.652;23.364;2023-04-28T08:54:02;4.57;;;2.97;;
33190;SDS011;19554;42.652;23.364;2023-04-28T08:56:31;5.50;;;2.85;;
33190;SDS011;19554;42.652;23.364;2023-04-28T08:59:02;10.50;;;3.30;;
33190;SDS011;19554;42.652;23.364;2023-04-28T09:01:29;8.25;;;2.60;;
33190;SDS011;19554;42.652;23.364;2023-04-28T09:03:55;4.82;;;3.08;;
33190;SDS011;19554;42.652;23.364;2023-04-28T09:06:20;5.10;;;2.70;;
33190;SDS011;19554;42.652;23.364;2023-04-28T09:08:47;6.35;;;3.10;;
33190;SDS011;19554;42.652;23.364;2023-04-28T09:11:12;8.50;;;3.00;;
33190;SDS011;19554;42.652;23.364;2023-04-28T09:13:39;7.35;;;3.60;;
33190;SDS011;19554;42.652;23.364;2023-04-28T09:16:05;4.88;;;3.13;;
33190;SDS011;19554;42.652;23.364;2023-04-28T09:18:31;4.50;;;2.80;;
33190;SDS011;19554;42.652;23.364;2023-04-28T09:21:07;6.60;;;3.42;;
33190;SDS011;19554;42.652;23.364;2023-04-28T09:23:34;8.30;;;3.15;;
33190;SDS011;19554;42.652;23.364;2023-04-28T09:26:10;6.20;;;3.05;;
33190;SDS011;19554;42.652;23.364;2023-04-28T09:28:35;9.15;;;3.22;;
33190;SDS011;19554;42.652;23.364;2023-04-28T09:31:01;5.90;;;3.80;;
33190;SDS011;19554;42.652;23.364;2023-04-28T09:33:27;5.20;;;3.10;;
33190;SDS011;19554;42.652;23.364;2023-04-28T09:35:52;5.50;;;2.63;;
33190;SDS011;19554;42.652;23.364;2023-04-28T09:38:19;6.47;;;2.83;;
33190;SDS011;19554;42.652;23.364;2023-04-28T09:43:25;7.20;;;3.03;;
33190;SDS011;19554;42.652;23.364;2023-04-28T09:45:58;3.80;;;2.17;;
33190;SDS011;19554;42.652;23.364;2023-04-28T09:50:58;4.22;;;2.90;;
33190;SDS011;19554;42.652;23.364;2023-04-28T09:53:24;9.80;;;3.20;;
33190;SDS011;19554;42.652;23.364;2023-04-28T09:55:51;5.53;;;3.33;;
33190;SDS011;19554;42.652;23.364;2023-04-28T09:58:20;7.22;;;3.10;;
33190;SDS011;19554;42.652;23.364;2023-04-28T10:00:56;7.80;;;2.83;;
33190;SDS011;19554;42.652;23.364;2023-04-28T10:03:24;2.90;;;2.15;;
33190;SDS011;19554;42.652;23.364;2023-04-28T10:05:51;5.70;;;2.53;;
33190;SDS011;19554;42.652;23.364;2023-04-28T10:08:20;6.82;;;2.67;;
33190;SDS011;19554;42.652;23.364;2023-04-28T10:10:50;8.98;;;3.53;;
33190;SDS011;19554;42.652;23.364;2023-04-28T10:13:19;8.85;;;3.10;;
33190;SDS011;19554;42.652;23.364;2023-04-28T10:15:46;7.20;;;2.85;;
33190;SDS011;19554;42.652;23.364;2023-04-28T10:18:11;5.38;;;2.60;;
33190;SDS011;19554;42.652;23.364;2023-04-28T10:20:39;4.82;;;2.30;;
33190;SDS011;19554;42.652;23.364;2023-04-28T10:23:16;6.70;;;2.78;;
33190;SDS011;19554;42.652;23.364;2023-04-28T10:26:03;10.30;;;3.25;;
33190;SDS011;19554;42.652;23.364;2023-04-28T10:28:34;4.60;;;2.28;;
33190;SDS011;19554;42.652;23.364;2023-04-28T10:31:19;6.88;;;2.15;;
33190;SDS011;19554;42.652;23.364;2023-04-28T10:33:46;9.57;;;2.63;;
33190;SDS011;19554;42.652;23.364;2023-04-28T10:39:19;4.75;;;2.47;;
33190;SDS011;19554;42.652;23.364;2023-04-28T10:41:45;9.05;;;3.08;;
33190;SDS011;19554;42.652;23.364;2023-04-28T10:47:04;4.43;;;2.10;;
33190;SDS011;19554;42.652;23.364;2023-04-28T11:00:44;5.47;;;2.70;;
33190;SDS011;19554;42.652;23.364;2023-04-28T11:09:00;6.70;;;2.53;;
33190;SDS011;19554;42.652;23.364;2023-04-28T11:12:24;4.10;;;2.10;;
33190;SDS011;19554;42.652;23.364;2023-04-28T11:19:26;4.47;;;2.45;;
33190;SDS011;19554;42.652;23.364;2023-04-28T11:21:54;7.13;;;2.80;;
33190;SDS011;19554;42.652;23.364;2023-04-28T11:24:21;10.35;;;2.88;;
33190;SDS011;19554;42.652;23.364;2023-04-28T11:26:49;6.43;;;2.28;;
33190;SDS011;19554;42.652;23.364;2023-04-28T11:29:15;10.90;;;2.45;;
33190;SDS011;19554;42.652;23.364;2023-04-28T11:31:48;10.38;;;3.15;;
33190;SDS011;19554;42.652;23.364;2023-04-28T11:34:17;3.38;;;2.03;;
33190;SDS011;19554;42.652;23.364;2023-04-28T11:36:44;7.80;;;1.95;;
33190;SDS011;19554;42.652;23.364;2023-04-28T11:39:10;6.47;;;2.05;;
33190;SDS011;19554;42.652;23.364;2023-04-28T11:41:37;4.47;;;2.33;;
33190;SDS011;19554;42.652;23.364;2023-04-28T11:44:14;7.47;;;2.55;;
33190;SDS011;19554;42.652;23.364;2023-04-28T11:49:10;4.82;;;2.00;;
33190;SDS011;19554;42.652;23.364;2023-04-28T11:51:36;10.75;;;2.40;;
33190;SDS011;19554;42.652;23.364;2023-04-28T11:54:05;6.20;;;2.65;;
33190;SDS011;19554;42.652;23.364;2023-04-28T11:56:38;4.63;;;2.20;;
33190;SDS011;19554;42.652;23.364;2023-04-28T11:59:08;6.53;;;1.95;;
33190;SDS011;19554;42.652;23.364;2023-04-28T12:01:43;4.07;;;2.17;;
33190;SDS011;19554;42.652;23.364;2023-04-28T12:04:09;4.72;;;1.98;;
33190;SDS011;19554;42.652;23.364;2023-04-28T12:06:34;3.38;;;2.00;;
33190;SDS011;19554;42.652;23.364;2023-04-28T12:09:00;6.75;;;2.85;;
33190;SDS011;19554;42.652;23.364;2023-04-28T12:11:29;4.93;;;2.10;;
33190;SDS011;19554;42.652;23.364;2023-04-28T12:14:01;4.35;;;2.50;;
33190;SDS011;19554;42.652;23.364;2023-04-28T12:16:40;7.88;;;2.50;;
33190;SDS011;19554;42.652;23.364;2023-04-28T12:19:10;2.58;;;2.03;;
33190;SDS011;19554;42.652;23.364;2023-04-28T12:21:37;4.88;;;2.78;;
33190;SDS011;19554;42.652;23.364;2023-04-28T12:24:16;5.32;;;2.15;;
33190;SDS011;19554;42.652;23.364;2023-04-28T12:26:43;5.47;;;3.13;;
33190;SDS011;19554;42.652;23.364;2023-04-28T12:29:09;3.40;;;2.03;;
33190;SDS011;19554;42.652;23.364;2023-04-28T12:31:54;6.03;;;2.30;;
33190;SDS011;19554;42.652;23.364;2023-04-28T12:34:21;3.95;;;2.05;;
33190;SDS011;19554;42.652;23.364;2023-04-28T12:36:46;4.18;;;1.95;;
33190;SDS011;19554;42.652;23.364;2023-04-28T12:39:12;6.38;;;2.45;;
33190;SDS011;19554;42.652;23.364;2023-04-28T12:41:40;4.97;;;2.20;;
33190;SDS011;19554;42.652;23.364;2023-04-28T12:44:06;5.18;;;2.25;;
33190;SDS011;19554;42.652;23.364;2023-04-28T12:46:31;6.30;;;2.53;;
33190;SDS011;19554;42.652;23.364;2023-04-28T12:48:57;4.53;;;2.70;;
33190;SDS011;19554;42.652;23.364;2023-04-28T12:51:22;6.85;;;2.30;;
33190;SDS011;19554;42.652;23.364;2023-04-28T12:53:48;4.65;;;2.05;;
33190;SDS011;19554;42.652;23.364;2023-04-28T12:56:13;4.50;;;2.63;;
33190;SDS011;19554;42.652;23.364;2023-04-28T12:58:38;3.45;;;2.20;;
33190;SDS011;19554;42.652;23.364;2023-04-28T13:01:05;5.43;;;2.50;;
33190;SDS011;19554;42.652;23.364;2023-04-28T13:03:30;5.20;;;2.10;;
33190;SDS011;19554;42.652;23.364;2023-04-28T13:05:56;3.67;;;1.88;;
33190;SDS011;19554;42.652;23.364;2023-04-28T13:08:21;7.07;;;2.40;;
33190;SDS011;19554;42.652;23.364;2023-04-28T13:10:46;9.13;;;2.25;;
33190;SDS011;19554;42.652;23.364;2023-04-28T13:13:12;7.82;;;3.13;;
33190;SDS011;19554;42.652;23.364;2023-04-28T13:15:37;8.07;;;2.60;;
33190;SDS011;19554;42.652;23.364;2023-04-28T13:18:03;6.50;;;2.08;;
33190;SDS011;19554;42.652;23.364;2023-04-28T13:20:28;5.68;;;2.50;;
33190;SDS011;19554;42.652;23.364;2023-04-28T13:22:54;8.90;;;2.55;;
33190;SDS011;19554;42.652;23.364;2023-04-28T13:25:19;6.05;;;2.67;;
33190;SDS011;19554;42.652;23.364;2023-04-28T13:27:46;4.80;;;2.38;;
33190;SDS011;19554;42.652;23.364;2023-04-28T13:30:11;4.47;;;2.30;;
33190;SDS011;19554;42.652;23.364;2023-04-28T13:32:37;4.97;;;2.38;;
33190;SDS011;19554;42.652;23.364;2023-04-28T13:35:03;2.58;;;2.13;;
33190;SDS011;19554;42.652;23.364;2023-04-28T13:37:29;4.47;;;2.00;;
33190;SDS011;19554;42.652;23.364;2023-04-28T13:39:55;4.35;;;2.33;;
33190;SDS011;19554;42.652;23.364;2023-04-28T13:42:22;4.05;;;2.13;;
33190;SDS011;19554;42.652;23.364;2023-04-28T13:44:47;4.93;;;2.47;;
33190;SDS011;19554;42.652;23.364;2023-04-28T13:47:13;6.07;;;2.47;;
33190;SDS011;19554;42.652;23.364;2023-04-28T13:49:38;4.40;;;2.00;;
33190;SDS011;19554;42.652;23.364;2023-04-28T13:52:04;4.63;;;2.50;;
33190;SDS011;19554;42.652;23.364;2023-04-28T13:54:29;6.85;;;2.42;;
33190;SDS011;19554;42.652;23.364;2023-04-28T13:56:55;4.35;;;3.05;;
33190;SDS011;19554;42.652;23.364;2023-04-28T13:59:20;4.05;;;2.20;;
33190;SDS011;19554;42.652;23.364;2023-04-28T14:01:46;7.07;;;2.22;;
33190;SDS011;19554;42.652;23.364;2023-04-28T14:04:12;4.47;;;2.40;;
33190;SDS011;19554;42.652;23.364;2023-04-28T14:06:37;4.25;;;2.00;;
33190;SDS011;19554;42.652;23.364;2023-04-28T14:09:03;6.93;;;1.98;;
33190;SDS011;19554;42.652;23.364;2023-04-28T14:11:29;5.35;;;2.38;;
33190;SDS011;19554;42.652;23.364;2023-04-28T14:13:54;7.93;;;2.33;;
33190;SDS011;19554;42.652;23.364;2023-04-28T14:16:19;6.22;;;2.33;;
33190;SDS011;19554;42.652;23.364;2023-04-28T14:18:45;9.63;;;3.15;;
33190;SDS011;19554;42.652;23.364;2023-04-28T14:21:10;3.40;;;2.35;;
33190;SDS011;19554;42.652;23.364;2023-04-28T14:23:36;7.70;;;2.15;;
33190;SDS011;19554;42.652;23.364;2023-04-28T14:26:01;4.13;;;2.15;;
33190;SDS011;19554;42.652;23.364;2023-04-28T14:28:27;4.03;;;1.98;;
33190;SDS011;19554;42.652;23.364;2023-04-28T14:30:53;7.43;;;2.80;;
33190;SDS011;19554;42.652;23.364;2023-04-28T14:33:18;6.88;;;2.30;;
33190;SDS011;19554;42.652;23.364;2023-04-28T14:35:43;4.38;;;2.50;;
33190;SDS011;19554;42.652;23.364;2023-04-28T14:38:09;4.20;;;2.42;;
33190;SDS011;19554;42.652;23.364;2023-04-28T14:40:34;4.88;;;2.42;;
33190;SDS011;19554;42.652;23.364;2023-04-28T14:43:00;5.70;;;2.83;;
33190;SDS011;19554;42.652;23.364;2023-04-28T14:45:25;4.18;;;2.20;;
33190;SDS011;19554;42.652;23.364;2023-04-28T14:47:51;8.57;;;2.53;;
33190;SDS011;19554;42.652;23.364;2023-04-28T14:50:17;4.82;;;2.30;;
33190;SDS011;19554;42.652;23.364;2023-04-28T14:52:42;5.15;;;1.88;;
33190;SDS011;19554;42.652;23.364;2023-04-28T14:55:08;4.75;;;2.42;;
33190;SDS011;19554;42.652;23.364;2023-04-28T14:57:34;4.18;;;2.40;;
33190;SDS011;19554;42.652;23.364;2023-04-28T14:59:59;4.30;;;2.13;;
33190;SDS011;19554;42.652;23.364;2023-04-28T15:02:26;3.35;;;2.10;;
33190;SDS011;19554;42.652;23.364;2023-04-28T15:04:53;4.32;;;2.28;;